Terminal Aerodrome Forecast
Issued by NWS

Home | Current Version | Previous Version | Text Only | Print | Product List | Glossary On
Versions: 1 2 3 4 5 6 7 8 9 10 11 12 13 14 15 16 17
000
FTAK31 PAJN 201124
TAFAPG
TAF
PAPG 201124Z 2012/2112 VRB03KT P6SM -SHRA SCT015 OVC035
      TEMPO 2012/2016 SCT015 OVC025
     FM201600 14004KT P6SM -SHRA SCT010 OVC025
     FM210700 14005KT P6SM OVC040 WS020/14025KT
      AMD LTD TO CLD VIS AND WIND 2012/2015=

USA.gov is the U.S. government's official web portal to all federal, state and local government web resources and services.